Time;durP1;ratioP1;P1;durP2;ratioP2;P2;SDS_P1;SDS_P2;PMS_P1;PMS_P2;Temp;Humidity;BMP_temperature;BMP_pressure;BME280_temperature;BME280_humidity;BME280_pressure;Samples;Min_cycle;Max_cycle;Signal;HPM_P1;HPM_P2
2023/02/21 02:15:49;;;;;;;4.05;1.20;;;;;;;;;;10485987;28;20554;-78
2023/02/21 02:21:13;;;;;;;4.47;1.80;;;;;;;;;;10490343;28;20041;-76
2023/02/21 02:26:30;;;;;;;5.65;1.80;;;;;;;;;;10445539;28;20105;-76
2023/02/21 02:31:50;;;;;;;5.50;1.90;;;;;;;;;;10478586;28;20055;-75
2023/02/21 02:36:58;;;;;;;7.35;3.38;;;;;;;;;;10486064;28;20072;-76
2023/02/21 02:42:06;;;;;;;4.93;1.40;;;;;;;;;;10481421;28;20041;-76
2023/02/21 02:47:12;;;;;;;7.78;2.83;;;;;;;;;;10499765;28;20086;-77
2023/02/21 02:52:16;;;;;;;1.85;0.73;;;;;;;;;;10493348;28;20064;-76
2023/02/21 02:57:19;;;;;;;5.28;2.13;;;;;;;;;;10495311;28;20033;-76
2023/02/21 03:02:28;;;;;;;5.70;1.48;;;;;;;;;;10502346;28;20488;-75
2023/02/21 03:07:38;;;;;;;2.95;1.70;;;;;;;;;;10510008;28;20053;-75
2023/02/21 03:12:44;;;;;;;3.67;2.05;;;;;;;;;;10504625;28;20043;-75
2023/02/21 03:17:51;;;;;;;5.38;2.00;;;;;;;;;;10502310;28;20035;-76
2023/02/21 03:22:57;;;;;;;1.17;0.98;;;;;;;;;;10503083;28;20078;-76
2023/02/21 03:28:00;;;;;;;4.85;1.90;;;;;;;;;;10508323;28;20505;-76
2023/02/21 03:33:03;;;;;;;4.27;2.10;;;;;;;;;;10520209;28;20093;-75
2023/02/21 03:38:07;;;;;;;5.22;1.88;;;;;;;;;;10511598;28;20094;-74
2023/02/21 03:43:09;;;;;;;4.35;1.70;;;;;;;;;;10513982;28;20043;-74
2023/02/21 03:48:12;;;;;;;4.78;2.03;;;;;;;;;;10512444;28;20040;-74
2023/02/21 03:53:25;;;;;;;7.78;1.90;;;;;;;;;;10521479;28;20063;-75
2023/02/21 03:58:28;;;;;;;0.80;0.60;;;;;;;;;;10530484;28;20072;-76
2023/02/21 04:03:31;;;;;;;5.65;1.60;;;;;;;;;;10540572;28;20043;-75
2023/02/21 04:08:35;;;;;;;4.10;1.90;;;;;;;;;;10539334;28;20049;-75
2023/02/21 04:13:37;;;;;;;4.53;2.15;;;;;;;;;;10539206;28;20056;-76
2023/02/21 04:18:40;;;;;;;2.72;1.33;;;;;;;;;;10521228;28;20052;-76
2023/02/21 04:23:44;;;;;;;4.88;1.73;;;;;;;;;;10512455;28;20053;-76
2023/02/21 04:28:47;;;;;;;2.38;1.25;;;;;;;;;;10508171;28;20262;-76
2023/02/21 04:33:50;;;;;;;2.07;1.20;;;;;;;;;;10518434;28;20120;-76
2023/02/21 04:39:12;;;;;;;2.53;1.63;;;;;;;;;;10519107;28;20045;-76
2023/02/21 04:44:17;;;;;;;;;;;;;;;;;;10513822;28;20106;-77
2023/02/21 04:49:37;;;;;;;3.00;1.58;;;;;;;;;;10517731;28;20051;-77
2023/02/21 04:54:41;;;;;;;2.35;1.23;;;;;;;;;;10507151;28;20039;-77
2023/02/21 04:59:43;;;;;;;4.75;1.88;;;;;;;;;;10501786;28;20066;-76
2023/02/21 05:04:46;;;;;;;3.78;1.58;;;;;;;;;;10502752;28;20075;-77
2023/02/21 05:09:50;;;;;;;4.13;1.35;;;;;;;;;;10482289;28;20041;-76
2023/02/21 05:14:53;;;;;;;2.08;1.35;;;;;;;;;;10499312;28;20041;-75
2023/02/21 05:19:55;;;;;;;3.22;1.45;;;;;;;;;;10500467;28;20055;-76
2023/02/21 05:24:59;;;;;;;4.97;1.75;;;;;;;;;;10498654;28;20163;-75
2023/02/21 05:30:02;;;;;;;0.90;0.90;;;;;;;;;;10502454;28;20048;-76
2023/02/21 05:35:05;;;;;;;4.78;1.52;;;;;;;;;;10492658;28;20311;-76
2023/02/21 05:40:11;;;;;;;5.80;1.10;;;;;;;;;;10498508;28;20036;-76
2023/02/21 05:45:14;;;;;;;3.28;1.40;;;;;;;;;;10490950;28;20044;-76
2023/02/21 05:50:17;;;;;;;4.40;1.60;;;;;;;;;;10477709;28;20045;-76
2023/02/21 05:55:21;;;;;;;3.40;1.73;;;;;;;;;;10475922;28;20588;-77
2023/02/21 06:00:25;;;;;;;4.78;1.73;;;;;;;;;;10483341;28;20044;-76
2023/02/21 06:05:28;;;;;;;0.75;0.63;;;;;;;;;;10487323;28;20088;-77
2023/02/21 06:10:32;;;;;;;6.95;1.60;;;;;;;;;;10486373;28;20417;-77
2023/02/21 06:15:34;;;;;;;3.20;1.70;;;;;;;;;;10478923;28;20125;-76
2023/02/21 06:20:37;;;;;;;5.78;2.08;;;;;;;;;;10480470;28;20036;-75
2023/02/21 06:25:41;;;;;;;4.50;1.90;;;;;;;;;;10478432;28;20043;-77
2023/02/21 06:30:43;;;;;;;4.40;1.38;;;;;;;;;;10477426;28;20424;-76
2023/02/21 06:35:46;;;;;;;4.50;1.60;;;;;;;;;;10479572;28;20068;-76
2023/02/21 06:40:50;;;;;;;4.40;2.05;;;;;;;;;;10478575;28;20036;-75
2023/02/21 06:45:53;;;;;;;5.82;2.17;;;;;;;;;;10474759;28;20067;-76
2023/02/21 06:50:56;;;;;;;6.03;2.35;;;;;;;;;;10479804;28;20508;-76
2023/02/21 06:56:01;;;;;;;7.57;2.35;;;;;;;;;;10463357;28;20060;-75
2023/02/21 07:01:03;;;;;;;;;;;;;;;;;;10486022;28;20048;-79
2023/02/21 07:06:06;;;;;;;6.03;2.17;;;;;;;;;;10483285;28;19928;-79
2023/02/21 07:11:10;;;;;;;5.20;2.10;;;;;;;;;;10476107;28;20060;-77
2023/02/21 07:16:13;;;;;;;8.02;2.15;;;;;;;;;;10486127;28;20049;-78
2023/02/21 07:21:16;;;;;;;5.10;2.40;;;;;;;;;;10481823;28;20040;-78
2023/02/21 07:26:20;;;;;;;6.90;2.28;;;;;;;;;;10466838;28;20135;-77
2023/02/21 07:31:23;;;;;;;4.97;2.15;;;;;;;;;;10492516;28;20556;-79
2023/02/21 07:36:26;;;;;;;4.25;2.20;;;;;;;;;;10481416;28;20076;-82
2023/02/21 07:41:30;;;;;;;7.65;2.83;;;;;;;;;;10476980;28;20394;-82
2023/02/21 07:46:33;;;;;;;10.98;4.22;;;;;;;;;;10481610;28;20044;-81
2023/02/21 07:51:35;;;;;;;;;;;;;;;;;;10489710;28;20043;-80
2023/02/21 07:56:43;;;;;;;4.78;2.33;;;;;;;;;;10492850;28;19920;-80
2023/02/21 08:01:46;;;;;;;8.50;2.97;;;;;;;;;;10492532;28;20060;-80
2023/02/21 08:06:49;;;;;;;;;;;;;;;;;;10491500;28;20037;-80
2023/02/21 08:11:53;;;;;;;5.63;2.50;;;;;;;;;;10497832;28;19920;-80
2023/02/21 08:16:56;;;;;;;6.25;2.72;;;;;;;;;;10487812;28;20497;-80
2023/02/21 08:22:00;;;;;;;5.53;2.70;;;;;;;;;;10486816;28;20039;-80
2023/02/21 08:27:04;;;;;;;5.78;2.60;;;;;;;;;;10485459;28;20082;-80
2023/02/21 08:32:10;;;;;;;7.80;2.90;;;;;;;;;;10485144;28;20063;-81
2023/02/21 08:37:18;;;;;;;5.72;2.80;;;;;;;;;;10484179;28;20040;-84
2023/02/21 08:42:43;;;;;;;4.72;2.83;;;;;;;;;;10482865;28;20190;-84
2023/02/21 08:48:07;;;;;;;4.43;2.63;;;;;;;;;;10479145;28;20044;-84
2023/02/21 08:53:29;;;;;;;7.25;2.85;;;;;;;;;;10476127;28;20731;-85
2023/02/21 08:58:54;;;;;;;9.40;2.50;;;;;;;;;;10483174;28;20044;-83
2023/02/21 09:04:17;;;;;;;3.30;2.33;;;;;;;;;;10478279;28;20110;-85
2023/02/21 09:09:40;;;;;;;6.38;2.67;;;;;;;;;;10490036;28;20455;-85
2023/02/21 09:15:06;;;;;;;2.67;2.00;;;;;;;;;;10482621;28;20047;-78
2023/02/21 09:20:29;;;;;;;6.07;2.25;;;;;;;;;;10478877;28;20081;-78
2023/02/21 09:25:52;;;;;;;4.00;2.20;;;;;;;;;;10473488;28;20143;-78
2023/02/21 09:31:17;;;;;;;6.90;2.22;;;;;;;;;;10473705;28;20127;-78
2023/02/21 09:36:40;;;;;;;3.92;2.10;;;;;;;;;;10478501;28;20606;-78
2023/02/21 09:42:03;;;;;;;6.43;2.28;;;;;;;;;;10477102;28;20032;-77
2023/02/21 09:47:30;;;;;;;3.33;2.38;;;;;;;;;;10475116;28;21585;-78
2023/02/21 09:52:53;;;;;;;3.38;2.03;;;;;;;;;;10476583;28;20517;-79
2023/02/21 09:58:18;;;;;;;5.97;2.30;;;;;;;;;;10471592;28;20051;-78
2023/02/21 10:03:48;;;;;;;4.70;2.30;;;;;;;;;;10466325;28;20044;-78
2023/02/21 10:09:19;;;;;;;3.47;2.40;;;;;;;;;;10475120;28;20041;-79
2023/02/21 10:14:51;;;;;;;2.72;2.00;;;;;;;;;;10463721;28;20049;-77
2023/02/21 10:20:24;;;;;;;4.57;1.90;;;;;;;;;;10470344;28;20048;-79
2023/02/21 10:25:47;;;;;;;5.00;2.10;;;;;;;;;;10472866;28;20053;-77
2023/02/21 10:31:13;;;;;;;4.72;2.30;;;;;;;;;;10470261;28;20473;-78
2023/02/21 10:36:39;;;;;;;4.18;1.90;;;;;;;;;;10466436;28;20166;-79
2023/02/21 10:42:01;;;;;;;4.25;2.58;;;;;;;;;;10471091;28;20442;-78
2023/02/21 10:47:27;;;;;;;4.80;2.50;;;;;;;;;;10470687;28;20524;-78
2023/02/21 10:52:52;;;;;;;3.45;2.10;;;;;;;;;;10475871;28;20271;-78
2023/02/21 10:58:18;;;;;;;3.00;2.15;;;;;;;;;;10468167;28;20049;-77
2023/02/21 11:03:46;;;;;;;8.32;2.30;;;;;;;;;;10471546;28;20059;-78
2023/02/21 11:09:24;;;;;;;4.45;2.28;;;;;;;;;;10470100;28;20083;-78
2023/02/21 11:15:01;;;;;;;6.18;2.10;;;;;;;;;;10472448;28;20052;-78
2023/02/21 11:20:27;;;;;;;3.53;2.17;;;;;;;;;;10473291;28;20049;-78
2023/02/21 11:25:51;;;;;;;6.50;2.33;;;;;;;;;;10473452;28;20056;-78
2023/02/21 11:31:19;;;;;;;4.72;2.40;;;;;;;;;;10474403;28;20044;-84
2023/02/21 11:36:44;;;;;;;2.50;1.95;;;;;;;;;;10474979;28;20097;-78
2023/02/21 11:42:23;;;;;;;5.00;2.10;;;;;;;;;;10479291;28;20664;-79
2023/02/21 11:47:48;;;;;;;2.22;1.77;;;;;;;;;;10480444;28;20098;-78
2023/02/21 11:53:15;;;;;;;4.15;1.98;;;;;;;;;;10482394;28;20103;-78
2023/02/21 11:58:40;;;;;;;4.55;2.30;;;;;;;;;;10478915;28;20063;-78
2023/02/21 12:04:13;;;;;;;3.90;2.20;;;;;;;;;;10476080;28;20048;-79
2023/02/21 12:09:42;;;;;;;4.55;1.60;;;;;;;;;;10473747;28;20048;-77
2023/02/21 12:15:11;;;;;;;2.63;1.60;;;;;;;;;;10482936;28;20517;-79
2023/02/21 12:20:46;;;;;;;3.88;1.70;;;;;;;;;;10480477;28;20498;-78
2023/02/21 12:26:27;;;;;;;2.05;1.77;;;;;;;;;;10482117;28;20044;-78
2023/02/21 12:31:39;;;;;;;3.05;1.90;;;;;;;;;;10489398;28;20048;-78
2023/02/21 12:37:13;;;;;;;2.10;1.80;;;;;;;;;;10473538;28;20127;-78
2023/02/21 12:42:46;;;;;;;3.05;1.80;;;;;;;;;;10480098;28;20510;-77
2023/02/21 12:48:13;;;;;;;2.75;1.65;;;;;;;;;;10476872;28;20060;-77
2023/02/21 12:53:41;;;;;;;3.50;1.83;;;;;;;;;;10477798;28;20075;-78
2023/02/21 12:59:11;;;;;;;2.45;1.85;;;;;;;;;;10485648;28;20040;-79
2023/02/21 13:04:36;;;;;;;2.75;1.90;;;;;;;;;;10478534;28;20413;-79
2023/02/21 13:10:02;;;;;;;5.18;1.88;;;;;;;;;;10482509;28;20469;-78
2023/02/21 13:15:27;;;;;;;4.10;2.00;;;;;;;;;;10479010;28;20045;-78
2023/02/21 13:20:52;;;;;;;1.70;1.60;;;;;;;;;;10485627;28;20041;-78
2023/02/21 13:26:22;;;;;;;3.60;1.60;;;;;;;;;;10493578;28;20056;-79
2023/02/21 13:31:45;;;;;;;1.95;1.60;;;;;;;;;;10492541;28;20429;-79
2023/02/21 13:36:48;;;;;;;4.70;1.73;;;;;;;;;;10481209;28;20087;-79
2023/02/21 13:41:54;;;;;;;2.75;1.60;;;;;;;;;;10480684;28;20094;-80
2023/02/21 13:47:05;;;;;;;3.53;1.63;;;;;;;;;;10477139;28;20425;-79
2023/02/21 13:52:15;;;;;;;1.60;1.50;;;;;;;;;;10481033;28;20452;-79
2023/02/21 13:57:29;;;;;;;3.28;1.73;;;;;;;;;;10482150;28;20306;-79
2023/02/21 14:02:34;;;;;;;5.82;1.75;;;;;;;;;;10475084;28;20113;-78
2023/02/21 14:07:44;;;;;;;2.13;1.58;;;;;;;;;;10489703;28;20094;-79
2023/02/21 14:12:51;;;;;;;2.80;1.60;;;;;;;;;;10481192;28;20094;-79
2023/02/21 14:17:55;;;;;;;2.60;1.55;;;;;;;;;;10474342;28;20052;-79
2023/02/21 14:22:58;;;;;;;1.70;1.42;;;;;;;;;;10474727;28;20052;-79
2023/02/21 14:28:01;;;;;;;4.35;1.60;;;;;;;;;;10486418;28;20098;-80
2023/02/21 14:33:23;;;;;;;1.95;1.30;;;;;;;;;;10476905;28;20049;-79
2023/02/21 14:38:32;;;;;;;2.55;1.20;;;;;;;;;;10485965;28;20101;-80
2023/02/21 14:43:53;;;;;;;2.35;1.10;;;;;;;;;;10483334;28;20056;-79
2023/02/21 14:49:05;;;;;;;5.18;2.25;;;;;;;;;;10486753;28;20055;-79
2023/02/21 14:54:23;;;;;;;2.22;1.20;;;;;;;;;;10483028;28;20040;-79
2023/02/21 14:59:41;;;;;;;2.63;1.10;;;;;;;;;;10473024;28;20148;-78
2023/02/21 15:04:46;;;;;;;1.63;1.10;;;;;;;;;;10475453;28;20077;-79
2023/02/21 15:15:22;;;;;;;3.42;1.20;;;;;;;;;;10496139;27;20468;-79
2023/02/21 15:20:24;;;;;;;0.90;0.68;;;;;;;;;;10478099;28;20072;-79
2023/02/21 15:25:36;;;;;;;1.25;0.80;;;;;;;;;;10477822;28;20049;-78
2023/02/21 15:30:41;;;;;;;3.10;1.10;;;;;;;;;;10482836;28;20199;-79
2023/02/21 15:35:46;;;;;;;4.93;1.10;;;;;;;;;;10468887;28;20111;-78
2023/02/21 15:40:54;;;;;;;2.88;1.08;;;;;;;;;;10471579;28;20144;-78
2023/02/21 15:46:00;;;;;;;1.55;0.90;;;;;;;;;;10472138;28;20056;-79
2023/02/21 15:51:05;;;;;;;2.67;0.88;;;;;;;;;;10471742;28;20135;-77
2023/02/21 15:56:18;;;;;;;2.40;1.13;;;;;;;;;;10474015;28;20056;-78
2023/02/21 16:01:21;;;;;;;;;;;;;;;;;;10471319;28;20080;-77
2023/02/21 16:06:27;;;;;;;3.25;1.10;;;;;;;;;;10470370;28;20290;-78
2023/02/21 16:11:41;;;;;;;1.95;0.88;;;;;;;;;;10472487;28;20657;-78
2023/02/21 16:16:44;;;;;;;1.63;0.90;;;;;;;;;;10474565;28;20106;-78
2023/02/21 16:21:49;;;;;;;3.55;0.90;;;;;;;;;;10473902;28;20055;-78
2023/02/21 16:27:01;;;;;;;2.20;1.00;;;;;;;;;;10447352;28;20365;-77
2023/02/21 16:32:04;;;;;;;2.72;1.00;;;;;;;;;;10445885;28;20049;-78
2023/02/21 16:37:12;;;;;;;3.10;1.00;;;;;;;;;;10443295;28;20063;-77
2023/02/21 16:42:25;;;;;;;4.78;1.20;;;;;;;;;;10439704;28;20068;-78
2023/02/21 16:47:28;;;;;;;7.90;1.45;;;;;;;;;;10444213;28;20033;-78
2023/02/21 16:52:42;;;;;;;8.77;1.15;;;;;;;;;;10395206;27;121698;-78
2023/02/21 16:57:56;;;;;;;3.65;1.33;;;;;;;;;;10407108;28;20045;-77
2023/02/21 17:02:59;;;;;;;6.20;1.30;;;;;;;;;;10399595;28;20399;-77
2023/02/21 17:08:05;;;;;;;4.22;1.50;;;;;;;;;;10402957;28;20245;-78
2023/02/21 17:13:16;;;;;;;6.28;1.58;;;;;;;;;;10400715;28;20068;-77
2023/02/21 17:18:30;;;;;;;8.98;1.77;;;;;;;;;;10403027;28;20037;-78
2023/02/21 17:23:43;;;;;;;4.78;1.60;;;;;;;;;;10404967;28;20042;-78
2023/02/21 17:28:56;;;;;;;6.70;2.58;;;;;;;;;;10401754;28;20124;-77
2023/02/21 17:34:11;;;;;;;3.22;1.85;;;;;;;;;;10404092;28;20041;-77
2023/02/21 17:39:17;;;;;;;11.13;3.42;;;;;;;;;;10403366;28;20491;-78
2023/02/21 17:44:26;;;;;;;4.38;1.92;;;;;;;;;;10398540;28;20029;-77
2023/02/21 17:49:39;;;;;;;5.13;1.77;;;;;;;;;;10398773;28;20148;-78
2023/02/21 17:54:43;;;;;;;8.05;2.42;;;;;;;;;;10402145;28;20781;-77
2023/02/21 17:59:47;;;;;;;6.22;2.20;;;;;;;;;;10398655;28;20049;-78
2023/02/21 18:04:50;;;;;;;4.82;2.50;;;;;;;;;;10403206;28;20040;-78
2023/02/21 18:09:54;;;;;;;5.45;2.05;;;;;;;;;;10409061;28;20045;-78
2023/02/21 18:14:57;;;;;;;5.18;2.03;;;;;;;;;;10404570;28;20055;-79
2023/02/21 18:20:00;;;;;;;7.30;2.70;;;;;;;;;;10409097;28;20758;-78
2023/02/21 18:25:16;;;;;;;12.80;3.08;;;;;;;;;;10409370;28;20128;-79
2023/02/21 18:30:40;;;;;;;7.82;2.63;;;;;;;;;;10405000;28;20080;-78
2023/02/21 18:35:43;;;;;;;12.93;2.55;;;;;;;;;;10411941;28;20038;-77
2023/02/21 18:40:47;;;;;;;6.05;2.33;;;;;;;;;;10403236;28;20041;-77
2023/02/21 18:45:59;;;;;;;4.63;2.42;;;;;;;;;;10403399;28;20147;-77
2023/02/21 18:51:04;;;;;;;12.93;4.35;;;;;;;;;;10400721;28;20045;-77
2023/02/21 18:56:10;;;;;;;16.95;5.47;;;;;;;;;;10396715;28;20580;-77
2023/02/21 19:01:14;;;;;;;9.45;3.10;;;;;;;;;;10400883;28;20045;-76
2023/02/21 19:06:20;;;;;;;10.32;3.45;;;;;;;;;;10401804;28;20129;-77
2023/02/21 19:11:26;;;;;;;17.65;4.53;;;;;;;;;;10404149;28;20054;-77
2023/02/21 19:16:28;;;;;;;9.52;3.17;;;;;;;;;;10400432;28;20434;-77
2023/02/21 19:21:32;;;;;;;16.05;5.00;;;;;;;;;;10398404;28;20052;-76
2023/02/21 19:26:37;;;;;;;13.23;4.93;;;;;;;;;;10397844;28;20049;-76
2023/02/21 19:31:40;;;;;;;12.98;4.85;;;;;;;;;;10400088;28;20047;-77
2023/02/21 19:36:43;;;;;;;8.33;3.80;;;;;;;;;;10397215;28;20495;-77
2023/02/21 19:41:48;;;;;;;10.25;3.58;;;;;;;;;;10396905;28;20565;-77
2023/02/21 19:46:51;;;;;;;10.23;4.05;;;;;;;;;;10394752;28;20041;-77
2023/02/21 19:51:55;;;;;;;9.67;3.40;;;;;;;;;;10399362;28;20051;-77
2023/02/21 19:56:59;;;;;;;12.88;4.10;;;;;;;;;;10394934;28;20823;-77
2023/02/21 20:02:14;;;;;;;10.30;5.10;;;;;;;;;;10405540;28;20033;-77
2023/02/21 20:07:27;;;;;;;12.45;3.20;;;;;;;;;;10401191;28;20128;-77
2023/02/21 20:12:41;;;;;;;11.18;3.08;;;;;;;;;;10404303;28;20033;-78
2023/02/21 20:17:45;;;;;;;12.77;3.42;;;;;;;;;;10408444;28;20033;-77
2023/02/21 20:22:47;;;;;;;8.02;3.28;;;;;;;;;;10402083;28;20046;-77
2023/02/21 20:27:54;;;;;;;14.45;3.50;;;;;;;;;;10404596;28;20447;-75
2023/02/21 20:33:07;;;;;;;9.50;4.03;;;;;;;;;;10403952;28;20116;-77
2023/02/21 20:38:11;;;;;;;11.50;3.72;;;;;;;;;;10404837;28;20092;-77
2023/02/21 20:43:16;;;;;;;12.30;4.00;;;;;;;;;;10408920;28;20048;-77
2023/02/21 20:48:24;;;;;;;12.00;4.32;;;;;;;;;;10409632;28;20050;-77
2023/02/21 20:53:28;;;;;;;15.02;4.70;;;;;;;;;;10409876;28;20033;-78
2023/02/21 20:58:33;;;;;;;15.07;4.70;;;;;;;;;;10411725;28;20049;-77
2023/02/21 21:03:41;;;;;;;12.27;4.60;;;;;;;;;;10404261;28;20071;-76
2023/02/21 21:08:44;;;;;;;16.20;4.97;;;;;;;;;;10403974;28;20499;-78
2023/02/21 21:13:49;;;;;;;11.73;4.43;;;;;;;;;;10408564;28;20034;-76
2023/02/21 21:18:53;;;;;;;12.80;4.25;;;;;;;;;;10403942;28;20041;-75
2023/02/21 21:23:56;;;;;;;6.70;2.78;;;;;;;;;;10401611;28;20452;-76
2023/02/21 21:29:01;;;;;;;10.30;3.53;;;;;;;;;;10405124;28;20095;-79
2023/02/21 21:34:05;;;;;;;11.13;3.85;;;;;;;;;;10404562;28;20072;-77
2023/02/21 21:39:08;;;;;;;11.18;3.92;;;;;;;;;;10404407;28;20041;-77
2023/02/21 21:44:13;;;;;;;10.07;4.38;;;;;;;;;;10403510;28;20037;-78
2023/02/21 21:49:20;;;;;;;12.75;4.20;;;;;;;;;;10401438;28;20041;-77
2023/02/21 21:54:25;;;;;;;12.35;4.45;;;;;;;;;;10400608;28;20034;-78
2023/02/21 21:59:31;;;;;;;7.35;3.63;;;;;;;;;;10396340;28;20064;-76
2023/02/21 22:04:33;;;;;;;12.63;4.70;;;;;;;;;;10401941;28;20041;-75
2023/02/21 22:09:37;;;;;;;17.20;4.23;;;;;;;;;;10398263;28;20052;-76
2023/02/21 22:14:41;;;;;;;;;;;;;;;;;;10400336;28;20049;-77
2023/02/21 22:19:49;;;;;;;8.55;3.92;;;;;;;;;;10396417;28;20062;-78
2023/02/21 22:24:53;;;;;;;9.32;3.38;;;;;;;;;;10401859;28;20398;-76
2023/02/21 22:29:56;;;;;;;12.03;3.60;;;;;;;;;;10401523;28;20037;-76
2023/02/21 22:35:04;;;;;;;16.55;4.85;;;;;;;;;;10397460;28;20399;-76
2023/02/21 22:40:08;;;;;;;12.00;4.22;;;;;;;;;;10395034;28;20462;-75
2023/02/21 22:45:11;;;;;;;;;;;;;;;;;;10400036;28;20029;-76
2023/02/21 22:50:18;;;;;;;13.52;4.35;;;;;;;;;;10401054;28;19931;-76
2023/02/21 22:55:23;;;;;;;9.35;4.13;;;;;;;;;;10396729;28;20050;-77
2023/02/21 23:00:31;;;;;;;11.55;4.05;;;;;;;;;;10400252;28;20095;-76
2023/02/21 23:05:38;;;;;;;13.10;4.07;;;;;;;;;;10399279;28;20030;-77
2023/02/21 23:10:40;;;;;;;11.82;4.28;;;;;;;;;;10404711;28;20650;-75
2023/02/21 23:15:44;;;;;;;11.00;4.00;;;;;;;;;;10400029;28;20120;-76
2023/02/21 23:20:51;;;;;;;9.45;3.55;;;;;;;;;;10404776;28;20061;-76
2023/02/21 23:25:57;;;;;;;10.60;4.30;;;;;;;;;;10402587;28;20045;-76
2023/02/21 23:31:00;;;;;;;11.38;4.25;;;;;;;;;;10401972;28;20598;-76
2023/02/21 23:36:21;;;;;;;11.77;4.50;;;;;;;;;;10408160;28;20053;-76
2023/02/21 23:41:27;;;;;;;10.80;3.63;;;;;;;;;;10402244;28;20122;-76
2023/02/21 23:46:30;;;;;;;9.00;3.88;;;;;;;;;;10403724;28;20100;-78
2023/02/21 23:51:36;;;;;;;5.40;1.70;;;;;;;;;;10404571;28;20066;-76
2023/02/21 23:56:39;;;;;;;7.18;2.70;;;;;;;;;;10407434;28;20033;-75
